sensor_id;sensor_type;location;lat;lon;timestamp;temperature;humidity
24338;DHT22;12457;50.832;4.346;2023-06-04T00:00:51;16.00;58.20
24338;DHT22;12457;50.832;4.346;2023-06-04T00:03:17;16.00;58.30
24338;DHT22;12457;50.832;4.346;2023-06-04T00:05:43;16.10;58.40
24338;DHT22;12457;50.832;4.346;2023-06-04T00:08:08;16.10;58.50
24338;DHT22;12457;50.832;4.346;2023-06-04T00:10:34;16.00;58.70
24338;DHT22;12457;50.832;4.346;2023-06-04T00:13:00;15.90;59.10
24338;DHT22;12457;50.832;4.346;2023-06-04T00:15:26;15.80;59.50
24338;DHT22;12457;50.832;4.346;2023-06-04T00:17:52;15.80;60.10
24338;DHT22;12457;50.832;4.346;2023-06-04T00:20:19;15.80;60.30
24338;DHT22;12457;50.832;4.346;2023-06-04T00:22:45;15.70;60.70
24338;DHT22;12457;50.832;4.346;2023-06-04T00:25:10;15.60;61.30
24338;DHT22;12457;50.832;4.346;2023-06-04T00:27:36;15.50;62.00
24338;DHT22;12457;50.832;4.346;2023-06-04T00:30:03;15.50;62.20
24338;DHT22;12457;50.832;4.346;2023-06-04T00:32:29;15.50;62.50
24338;DHT22;12457;50.832;4.346;2023-06-04T00:34:56;15.40;62.80
24338;DHT22;12457;50.832;4.346;2023-06-04T00:37:30;15.40;63.60
24338;DHT22;12457;50.832;4.346;2023-06-04T00:39:56;15.30;64.20
24338;DHT22;12457;50.832;4.346;2023-06-04T00:42:22;15.30;64.80
24338;DHT22;12457;50.832;4.346;2023-06-04T00:44:48;15.30;65.30
24338;DHT22;12457;50.832;4.346;2023-06-04T00:47:19;15.30;65.80
24338;DHT22;12457;50.832;4.346;2023-06-04T00:49:45;15.20;66.50
24338;DHT22;12457;50.832;4.346;2023-06-04T00:52:14;15.10;67.50
24338;DHT22;12457;50.832;4.346;2023-06-04T00:54:41;15.00;68.50
24338;DHT22;12457;50.832;4.346;2023-06-04T00:57:07;14.90;69.50
24338;DHT22;12457;50.832;4.346;2023-06-04T00:59:37;14.90;70.40
24338;DHT22;12457;50.832;4.346;2023-06-04T01:04:55;14.90;72.10
24338;DHT22;12457;50.832;4.346;2023-06-04T01:07:30;14.90;72.50
24338;DHT22;12457;50.832;4.346;2023-06-04T01:09:56;14.80;73.70
24338;DHT22;12457;50.832;4.346;2023-06-04T01:12:22;14.80;74.10
24338;DHT22;12457;50.832;4.346;2023-06-04T01:14:48;14.80;74.40
24338;DHT22;12457;50.832;4.346;2023-06-04T01:20:29;14.80;75.70
24338;DHT22;12457;50.832;4.346;2023-06-04T01:26:04;14.60;77.50
24338;DHT22;12457;50.832;4.346;2023-06-04T01:28:33;14.60;78.50
24338;DHT22;12457;50.832;4.346;2023-06-04T01:31:00;14.60;79.00
24338;DHT22;12457;50.832;4.346;2023-06-04T01:33:27;14.50;80.20
24338;DHT22;12457;50.832;4.346;2023-06-04T01:35:54;14.40;81.50
24338;DHT22;12457;50.832;4.346;2023-06-04T01:38:20;14.40;82.30
24338;DHT22;12457;50.832;4.346;2023-06-04T01:40:46;14.40;83.30
24338;DHT22;12457;50.832;4.346;2023-06-04T01:43:12;14.30;84.50
24338;DHT22;12457;50.832;4.346;2023-06-04T01:45:38;14.30;86.00
24338;DHT22;12457;50.832;4.346;2023-06-04T01:48:05;14.30;87.10
24338;DHT22;12457;50.832;4.346;2023-06-04T01:50:31;14.30;88.40
24338;DHT22;12457;50.832;4.346;2023-06-04T01:52:57;14.30;89.80
24338;DHT22;12457;50.832;4.346;2023-06-04T01:55:23;14.20;90.50
24338;DHT22;12457;50.832;4.346;2023-06-04T01:57:51;14.20;91.50
24338;DHT22;12457;50.832;4.346;2023-06-04T02:00:17;14.10;92.20
24338;DHT22;12457;50.832;4.346;2023-06-04T02:02:46;14.00;93.00
24338;DHT22;12457;50.832;4.346;2023-06-04T02:05:14;13.90;93.90
24338;DHT22;12457;50.832;4.346;2023-06-04T02:07:41;13.90;94.80
24338;DHT22;12457;50.832;4.346;2023-06-04T02:10:09;13.90;95.60
24338;DHT22;12457;50.832;4.346;2023-06-04T02:12:37;13.80;96.40
24338;DHT22;12457;50.832;4.346;2023-06-04T02:15:03;13.80;97.30
24338;DHT22;12457;50.832;4.346;2023-06-04T02:17:29;13.80;97.90
24338;DHT22;12457;50.832;4.346;2023-06-04T02:19:58;13.80;98.50
24338;DHT22;12457;50.832;4.346;2023-06-04T02:22:24;13.60;99.40
24338;DHT22;12457;50.832;4.346;2023-06-04T02:24:51;13.70;99.90
24338;DHT22;12457;50.832;4.346;2023-06-04T02:27:16;13.50;99.90
24338;DHT22;12457;50.832;4.346;2023-06-04T02:29:43;13.50;99.90
24338;DHT22;12457;50.832;4.346;2023-06-04T02:32:09;13.50;99.90
24338;DHT22;12457;50.832;4.346;2023-06-04T02:34:35;13.40;99.90
24338;DHT22;12457;50.832;4.346;2023-06-04T02:37:01;13.40;99.90
24338;DHT22;12457;50.832;4.346;2023-06-04T02:39:27;13.40;99.90
24338;DHT22;12457;50.832;4.346;2023-06-04T02:41:53;13.30;99.90
24338;DHT22;12457;50.832;4.346;2023-06-04T02:44:19;13.30;99.90
24338;DHT22;12457;50.832;4.346;2023-06-04T02:46:45;13.20;99.90
24338;DHT22;12457;50.832;4.346;2023-06-04T02:49:11;13.20;99.90
24338;DHT22;12457;50.832;4.346;2023-06-04T02:51:46;13.20;99.90
24338;DHT22;12457;50.832;4.346;2023-06-04T02:54:12;13.20;99.90
24338;DHT22;12457;50.832;4.346;2023-06-04T02:56:37;13.10;99.90
24338;DHT22;12457;50.832;4.346;2023-06-04T02:59:04;13.10;99.90
24338;DHT22;12457;50.832;4.346;2023-06-04T03:01:30;13.10;99.90
24338;DHT22;12457;50.832;4.346;2023-06-04T03:03:56;13.10;99.90
24338;DHT22;12457;50.832;4.346;2023-06-04T03:06:29;13.00;99.90
24338;DHT22;12457;50.832;4.346;2023-06-04T03:08:55;13.00;99.90
24338;DHT22;12457;50.832;4.346;2023-06-04T03:11:21;13.10;99.90
24338;DHT22;12457;50.832;4.346;2023-06-04T03:13:47;13.00;99.90
24338;DHT22;12457;50.832;4.346;2023-06-04T03:16:13;13.00;99.90
24338;DHT22;12457;50.832;4.346;2023-06-04T03:18:42;12.90;99.90
24338;DHT22;12457;50.832;4.346;2023-06-04T03:21:10;12.90;99.90
24338;DHT22;12457;50.832;4.346;2023-06-04T03:23:40;12.90;99.90
24338;DHT22;12457;50.832;4.346;2023-06-04T03:26:06;12.90;99.90
24338;DHT22;12457;50.832;4.346;2023-06-04T03:28:33;12.80;99.90
24338;DHT22;12457;50.832;4.346;2023-06-04T03:30:59;12.80;99.90
24338;DHT22;12457;50.832;4.346;2023-06-04T03:33:25;12.70;99.90
24338;DHT22;12457;50.832;4.346;2023-06-04T03:35:51;12.70;99.90
24338;DHT22;12457;50.832;4.346;2023-06-04T03:38:18;12.70;99.90
24338;DHT22;12457;50.832;4.346;2023-06-04T03:40:45;12.70;99.90
24338;DHT22;12457;50.832;4.346;2023-06-04T03:43:11;12.70;99.90
24338;DHT22;12457;50.832;4.346;2023-06-04T03:45:36;12.70;99.90
24338;DHT22;12457;50.832;4.346;2023-06-04T03:48:02;12.70;99.90
24338;DHT22;12457;50.832;4.346;2023-06-04T03:50:28;12.60;99.90
24338;DHT22;12457;50.832;4.346;2023-06-04T03:52:54;12.60;99.90
24338;DHT22;12457;50.832;4.346;2023-06-04T03:55:20;12.60;99.90
24338;DHT22;12457;50.832;4.346;2023-06-04T03:57:45;12.60;99.90
24338;DHT22;12457;50.832;4.346;2023-06-04T04:00:12;12.60;99.90
24338;DHT22;12457;50.832;4.346;2023-06-04T04:02:39;12.60;99.90
24338;DHT22;12457;50.832;4.346;2023-06-04T04:05:05;12.60;99.90
24338;DHT22;12457;50.832;4.346;2023-06-04T04:07:33;12.60;99.90
24338;DHT22;12457;50.832;4.346;2023-06-04T04:09:58;12.60;99.90
24338;DHT22;12457;50.832;4.346;2023-06-04T04:12:24;12.60;99.90
24338;DHT22;12457;50.832;4.346;2023-06-04T04:14:51;12.60;99.90
24338;DHT22;12457;50.832;4.346;2023-06-04T04:17:17;12.60;99.90
24338;DHT22;12457;50.832;4.346;2023-06-04T04:19:43;12.60;99.90
24338;DHT22;12457;50.832;4.346;2023-06-04T04:22:17;12.60;99.90
24338;DHT22;12457;50.832;4.346;2023-06-04T04:24:43;12.60;99.90
24338;DHT22;12457;50.832;4.346;2023-06-04T04:27:09;12.70;99.90
24338;DHT22;12457;50.832;4.346;2023-06-04T04:29:37;12.70;99.90
24338;DHT22;12457;50.832;4.346;2023-06-04T04:32:03;12.70;99.90
24338;DHT22;12457;50.832;4.346;2023-06-04T04:34:37;12.80;99.90
24338;DHT22;12457;50.832;4.346;2023-06-04T04:37:05;12.90;99.90
24338;DHT22;12457;50.832;4.346;2023-06-04T04:39:34;13.30;99.90
24338;DHT22;12457;50.832;4.346;2023-06-04T04:42:01;13.80;99.90
24338;DHT22;12457;50.832;4.346;2023-06-04T04:44:26;14.20;99.90
24338;DHT22;12457;50.832;4.346;2023-06-04T04:46:52;14.40;99.90
24338;DHT22;12457;50.832;4.346;2023-06-04T04:49:18;14.70;99.90
24338;DHT22;12457;50.832;4.346;2023-06-04T04:51:43;15.10;99.90
24338;DHT22;12457;50.832;4.346;2023-06-04T04:54:37;15.40;99.90
24338;DHT22;12457;50.832;4.346;2023-06-04T04:57:04;15.60;99.90
24338;DHT22;12457;50.832;4.346;2023-06-04T04:59:34;15.70;99.90
24338;DHT22;12457;50.832;4.346;2023-06-04T05:01:59;15.80;99.90
24338;DHT22;12457;50.832;4.346;2023-06-04T05:04:25;16.00;99.90
24338;DHT22;12457;50.832;4.346;2023-06-04T05:06:51;16.10;99.90
24338;DHT22;12457;50.832;4.346;2023-06-04T05:09:17;16.50;99.90
24338;DHT22;12457;50.832;4.346;2023-06-04T05:11:44;17.00;99.90
24338;DHT22;12457;50.832;4.346;2023-06-04T05:14:11;17.20;99.90
24338;DHT22;12457;50.832;4.346;2023-06-04T05:16:37;17.30;99.90
24338;DHT22;12457;50.832;4.346;2023-06-04T05:19:04;17.40;99.90
24338;DHT22;12457;50.832;4.346;2023-06-04T05:21:30;17.40;99.90
24338;DHT22;12457;50.832;4.346;2023-06-04T05:23:55;17.50;99.90
24338;DHT22;12457;50.832;4.346;2023-06-04T05:26:21;17.40;99.90
24338;DHT22;12457;50.832;4.346;2023-06-04T05:28:52;17.60;99.90
24338;DHT22;12457;50.832;4.346;2023-06-04T05:31:17;18.10;99.90
24338;DHT22;12457;50.832;4.346;2023-06-04T05:33:44;18.40;98.70
24338;DHT22;12457;50.832;4.346;2023-06-04T05:36:10;18.10;98.70
24338;DHT22;12457;50.832;4.346;2023-06-04T05:38:36;18.10;98.50
24338;DHT22;12457;50.832;4.346;2023-06-04T05:41:02;18.40;97.60
24338;DHT22;12457;50.832;4.346;2023-06-04T05:43:28;18.00;97.40
24338;DHT22;12457;50.832;4.346;2023-06-04T05:45:56;17.80;98.30
24338;DHT22;12457;50.832;4.346;2023-06-04T05:48:22;17.90;98.10
24338;DHT22;12457;50.832;4.346;2023-06-04T05:50:49;17.90;97.80
24338;DHT22;12457;50.832;4.346;2023-06-04T05:53:21;18.00;98.10
24338;DHT22;12457;50.832;4.346;2023-06-04T05:55:47;18.30;96.80
24338;DHT22;12457;50.832;4.346;2023-06-04T05:58:14;18.50;96.70
24338;DHT22;12457;50.832;4.346;2023-06-04T06:00:40;19.00;95.80
24338;DHT22;12457;50.832;4.346;2023-06-04T06:03:06;19.20;94.20
24338;DHT22;12457;50.832;4.346;2023-06-04T06:05:32;19.30;93.90
24338;DHT22;12457;50.832;4.346;2023-06-04T06:08:04;18.80;94.10
24338;DHT22;12457;50.832;4.346;2023-06-04T06:10:30;18.70;94.40
24338;DHT22;12457;50.832;4.346;2023-06-04T06:12:56;18.60;95.10
24338;DHT22;12457;50.832;4.346;2023-06-04T06:15:22;18.50;95.40
24338;DHT22;12457;50.832;4.346;2023-06-04T06:17:49;18.80;94.50
24338;DHT22;12457;50.832;4.346;2023-06-04T06:20:15;18.70;94.00
24338;DHT22;12457;50.832;4.346;2023-06-04T06:22:43;18.40;94.70
24338;DHT22;12457;50.832;4.346;2023-06-04T06:25:09;19.00;93.70
24338;DHT22;12457;50.832;4.346;2023-06-04T06:27:39;18.90;93.10
24338;DHT22;12457;50.832;4.346;2023-06-04T06:30:07;18.90;92.80
24338;DHT22;12457;50.832;4.346;2023-06-04T06:32:33;18.80;93.10
24338;DHT22;12457;50.832;4.346;2023-06-04T06:34:59;18.70;92.90
24338;DHT22;12457;50.832;4.346;2023-06-04T06:37:25;18.60;92.90
24338;DHT22;12457;50.832;4.346;2023-06-04T06:39:54;18.50;93.50
24338;DHT22;12457;50.832;4.346;2023-06-04T06:42:19;18.90;92.80
24338;DHT22;12457;50.832;4.346;2023-06-04T06:44:45;19.30;91.60
24338;DHT22;12457;50.832;4.346;2023-06-04T06:47:11;19.20;91.30
24338;DHT22;12457;50.832;4.346;2023-06-04T06:49:43;19.10;90.30
24338;DHT22;12457;50.832;4.346;2023-06-04T06:52:09;19.30;90.50
24338;DHT22;12457;50.832;4.346;2023-06-04T06:54:35;19.50;88.70
24338;DHT22;12457;50.832;4.346;2023-06-04T06:57:01;19.70;87.10
24338;DHT22;12457;50.832;4.346;2023-06-04T06:59:28;19.90;84.60
24338;DHT22;12457;50.832;4.346;2023-06-04T07:01:53;20.00;83.80
24338;DHT22;12457;50.832;4.346;2023-06-04T07:04:19;20.40;83.20
24338;DHT22;12457;50.832;4.346;2023-06-04T07:06:46;21.00;79.70
24338;DHT22;12457;50.832;4.346;2023-06-04T07:09:11;21.10;76.80
24338;DHT22;12457;50.832;4.346;2023-06-04T07:11:39;21.00;77.00
24338;DHT22;12457;50.832;4.346;2023-06-04T07:14:05;20.90;77.30
24338;DHT22;12457;50.832;4.346;2023-06-04T07:16:30;21.40;72.90
24338;DHT22;12457;50.832;4.346;2023-06-04T07:18:56;20.40;73.30
24338;DHT22;12457;50.832;4.346;2023-06-04T07:21:22;20.10;75.80
24338;DHT22;12457;50.832;4.346;2023-06-04T07:23:50;20.30;75.10
24338;DHT22;12457;50.832;4.346;2023-06-04T07:26:17;21.40;72.00
24338;DHT22;12457;50.832;4.346;2023-06-04T07:28:43;21.30;71.10
24338;DHT22;12457;50.832;4.346;2023-06-04T07:31:09;21.00;71.00
24338;DHT22;12457;50.832;4.346;2023-06-04T07:33:35;20.90;70.60
24338;DHT22;12457;50.832;4.346;2023-06-04T07:36:14;21.00;70.40
24338;DHT22;12457;50.832;4.346;2023-06-04T07:38:42;20.80;69.90
24338;DHT22;12457;50.832;4.346;2023-06-04T07:41:09;20.90;70.60
24338;DHT22;12457;50.832;4.346;2023-06-04T07:43:36;21.20;69.70
24338;DHT22;12457;50.832;4.346;2023-06-04T07:46:05;21.50;68.40
24338;DHT22;12457;50.832;4.346;2023-06-04T07:48:31;21.30;67.90
24338;DHT22;12457;50.832;4.346;2023-06-04T07:51:01;21.80;67.30
24338;DHT22;12457;50.832;4.346;2023-06-04T07:53:27;21.60;66.60
24338;DHT22;12457;50.832;4.346;2023-06-04T07:55:53;21.80;64.90
24338;DHT22;12457;50.832;4.346;2023-06-04T07:58:19;21.60;63.70
24338;DHT22;12457;50.832;4.346;2023-06-04T08:00:45;21.10;64.70
24338;DHT22;12457;50.832;4.346;2023-06-04T08:03:11;21.10;66.20
24338;DHT22;12457;50.832;4.346;2023-06-04T08:05:36;21.40;65.30
24338;DHT22;12457;50.832;4.346;2023-06-04T08:08:04;21.00;65.60
24338;DHT22;12457;50.832;4.346;2023-06-04T08:10:30;20.80;65.90
24338;DHT22;12457;50.832;4.346;2023-06-04T08:12:56;20.40;67.70
24338;DHT22;12457;50.832;4.346;2023-06-04T08:15:22;20.30;67.80
24338;DHT22;12457;50.832;4.346;2023-06-04T08:17:48;20.20;68.70
24338;DHT22;12457;50.832;4.346;2023-06-04T08:20:14;20.20;68.90
24338;DHT22;12457;50.832;4.346;2023-06-04T08:22:39;19.80;68.00
24338;DHT22;12457;50.832;4.346;2023-06-04T08:25:06;19.60;68.70
24338;DHT22;12457;50.832;4.346;2023-06-04T08:27:37;19.40;69.30
24338;DHT22;12457;50.832;4.346;2023-06-04T08:30:03;19.10;70.60
24338;DHT22;12457;50.832;4.346;2023-06-04T08:32:29;19.10;71.10
24338;DHT22;12457;50.832;4.346;2023-06-04T08:34:55;19.20;70.40
24338;DHT22;12457;50.832;4.346;2023-06-04T08:37:20;19.30;70.40
24338;DHT22;12457;50.832;4.346;2023-06-04T08:39:56;19.40;70.80
24338;DHT22;12457;50.832;4.346;2023-06-04T08:42:33;19.50;70.50
24338;DHT22;12457;50.832;4.346;2023-06-04T08:45:03;19.90;70.50
24338;DHT22;12457;50.832;4.346;2023-06-04T08:47:29;20.10;68.10
24338;DHT22;12457;50.832;4.346;2023-06-04T08:49:59;20.20;67.50
24338;DHT22;12457;50.832;4.346;2023-06-04T08:52:26;20.00;67.60
24338;DHT22;12457;50.832;4.346;2023-06-04T08:54:55;20.10;68.00
24338;DHT22;12457;50.832;4.346;2023-06-04T08:57:22;20.00;67.30
24338;DHT22;12457;50.832;4.346;2023-06-04T08:59:48;19.90;67.60
24338;DHT22;12457;50.832;4.346;2023-06-04T09:02:17;19.90;67.60
24338;DHT22;12457;50.832;4.346;2023-06-04T09:04:44;20.10;67.00
24338;DHT22;12457;50.832;4.346;2023-06-04T09:07:12;20.10;65.50
24338;DHT22;12457;50.832;4.346;2023-06-04T09:09:40;20.10;64.70
24338;DHT22;12457;50.832;4.346;2023-06-04T09:12:11;20.10;65.30
24338;DHT22;12457;50.832;4.346;2023-06-04T09:14:37;20.40;65.40
24338;DHT22;12457;50.832;4.346;2023-06-04T09:17:03;20.60;63.70
24338;DHT22;12457;50.832;4.346;2023-06-04T09:19:28;20.70;63.00
24338;DHT22;12457;50.832;4.346;2023-06-04T09:21:56;20.60;63.30
24338;DHT22;12457;50.832;4.346;2023-06-04T09:24:24;20.70;63.20
24338;DHT22;12457;50.832;4.346;2023-06-04T09:26:50;20.70;62.10
24338;DHT22;12457;50.832;4.346;2023-06-04T09:29:17;20.60;62.60
24338;DHT22;12457;50.832;4.346;2023-06-04T09:32:09;20.70;62.20
24338;DHT22;12457;50.832;4.346;2023-06-04T09:34:35;20.70;62.60
24338;DHT22;12457;50.832;4.346;2023-06-04T09:37:01;20.80;62.10
24338;DHT22;12457;50.832;4.346;2023-06-04T09:39:28;20.80;61.80
24338;DHT22;12457;50.832;4.346;2023-06-04T09:42:00;20.80;62.00
24338;DHT22;12457;50.832;4.346;2023-06-04T09:44:28;20.90;61.30
24338;DHT22;12457;50.832;4.346;2023-06-04T09:46:58;20.90;60.70
24338;DHT22;12457;50.832;4.346;2023-06-04T09:49:24;21.00;60.00
24338;DHT22;12457;50.832;4.346;2023-06-04T09:51:50;21.00;60.50
24338;DHT22;12457;50.832;4.346;2023-06-04T09:54:17;21.10;58.70
24338;DHT22;12457;50.832;4.346;2023-06-04T09:57:03;21.00;58.30
24338;DHT22;12457;50.832;4.346;2023-06-04T09:59:33;21.00;58.90
24338;DHT22;12457;50.832;4.346;2023-06-04T10:02:00;21.20;58.50
24338;DHT22;12457;50.832;4.346;2023-06-04T10:04:27;21.30;58.70
24338;DHT22;12457;50.832;4.346;2023-06-04T10:06:53;21.30;57.90
24338;DHT22;12457;50.832;4.346;2023-06-04T10:09:23;21.30;57.70
24338;DHT22;12457;50.832;4.346;2023-06-04T10:11:54;21.30;57.30
24338;DHT22;12457;50.832;4.346;2023-06-04T10:14:23;21.40;57.40
24338;DHT22;12457;50.832;4.346;2023-06-04T10:16:51;21.30;57.40
24338;DHT22;12457;50.832;4.346;2023-06-04T10:19:18;21.40;58.00
24338;DHT22;12457;50.832;4.346;2023-06-04T10:21:45;21.30;57.70
24338;DHT22;12457;50.832;4.346;2023-06-04T10:24:12;21.20;57.70
24338;DHT22;12457;50.832;4.346;2023-06-04T10:26:39;21.20;57.60
24338;DHT22;12457;50.832;4.346;2023-06-04T10:29:06;21.40;56.90
24338;DHT22;12457;50.832;4.346;2023-06-04T10:31:32;21.50;56.60
24338;DHT22;12457;50.832;4.346;2023-06-04T10:33:58;21.60;56.50
24338;DHT22;12457;50.832;4.346;2023-06-04T10:36:24;21.60;56.00
24338;DHT22;12457;50.832;4.346;2023-06-04T10:38:52;21.80;55.60
24338;DHT22;12457;50.832;4.346;2023-06-04T10:41:22;21.90;55.50
24338;DHT22;12457;50.832;4.346;2023-06-04T10:43:51;21.90;55.40
24338;DHT22;12457;50.832;4.346;2023-06-04T10:46:19;21.80;55.20
24338;DHT22;12457;50.832;4.346;2023-06-04T10:48:52;21.80;54.90
24338;DHT22;12457;50.832;4.346;2023-06-04T10:51:32;21.90;54.20
24338;DHT22;12457;50.832;4.346;2023-06-04T10:54:00;22.00;53.20
24338;DHT22;12457;50.832;4.346;2023-06-04T10:56:30;22.10;53.40
24338;DHT22;12457;50.832;4.346;2023-06-04T10:58:58;22.40;52.80
24338;DHT22;12457;50.832;4.346;2023-06-04T11:01:28;22.50;52.60
24338;DHT22;12457;50.832;4.346;2023-06-04T11:03:54;22.40;52.10
24338;DHT22;12457;50.832;4.346;2023-06-04T11:06:21;22.30;52.20
24338;DHT22;12457;50.832;4.346;2023-06-04T11:08:48;22.20;52.80
24338;DHT22;12457;50.832;4.346;2023-06-04T11:11:15;22.10;52.90
24338;DHT22;12457;50.832;4.346;2023-06-04T11:13:41;22.20;53.50
24338;DHT22;12457;50.832;4.346;2023-06-04T11:16:17;22.30;53.60
24338;DHT22;12457;50.832;4.346;2023-06-04T11:18:43;22.40;53.50
24338;DHT22;12457;50.832;4.346;2023-06-04T11:21:11;22.50;53.00
24338;DHT22;12457;50.832;4.346;2023-06-04T11:23:41;22.60;52.70
24338;DHT22;12457;50.832;4.346;2023-06-04T11:26:08;22.80;52.40
24338;DHT22;12457;50.832;4.346;2023-06-04T11:28:33;22.90;51.70
24338;DHT22;12457;50.832;4.346;2023-06-04T11:31:01;22.90;51.80
24338;DHT22;12457;50.832;4.346;2023-06-04T11:33:51;22.90;50.40
24338;DHT22;12457;50.832;4.346;2023-06-04T11:36:27;22.80;49.90
24338;DHT22;12457;50.832;4.346;2023-06-04T11:39:01;22.70;49.70
24338;DHT22;12457;50.832;4.346;2023-06-04T11:41:31;22.70;50.40
24338;DHT22;12457;50.832;4.346;2023-06-04T11:43:57;22.60;50.70
24338;DHT22;12457;50.832;4.346;2023-06-04T11:46:24;22.60;51.00
24338;DHT22;12457;50.832;4.346;2023-06-04T11:48:52;22.50;50.90
24338;DHT22;12457;50.832;4.346;2023-06-04T11:51:22;22.50;50.90
24338;DHT22;12457;50.832;4.346;2023-06-04T11:53:48;22.50;50.80
24338;DHT22;12457;50.832;4.346;2023-06-04T11:56:21;22.60;51.00
24338;DHT22;12457;50.832;4.346;2023-06-04T11:58:49;22.90;50.40
24338;DHT22;12457;50.832;4.346;2023-06-04T12:01:15;23.10;49.60
24338;DHT22;12457;50.832;4.346;2023-06-04T12:03:42;23.30;49.80
24338;DHT22;12457;50.832;4.346;2023-06-04T12:06:19;23.20;49.30
24338;DHT22;12457;50.832;4.346;2023-06-04T12:11:44;22.90;49.40
24338;DHT22;12457;50.832;4.346;2023-06-04T12:14:16;23.20;48.80
24338;DHT22;12457;50.832;4.346;2023-06-04T12:16:42;23.30;48.40
24338;DHT22;12457;50.832;4.346;2023-06-04T12:19:10;23.50;47.90
24338;DHT22;12457;50.832;4.346;2023-06-04T12:21:43;23.50;48.20
24338;DHT22;12457;50.832;4.346;2023-06-04T12:26:38;23.10;47.90
24338;DHT22;12457;50.832;4.346;2023-06-04T12:29:17;23.30;48.40
24338;DHT22;12457;50.832;4.346;2023-06-04T12:31:46;23.30;47.70
24338;DHT22;12457;50.832;4.346;2023-06-04T12:34:13;23.20;47.70
24338;DHT22;12457;50.832;4.346;2023-06-04T12:36:40;23.50;47.40
24338;DHT22;12457;50.832;4.346;2023-06-04T12:39:06;23.60;46.60
24338;DHT22;12457;50.832;4.346;2023-06-04T12:41:38;23.60;46.50
24338;DHT22;12457;50.832;4.346;2023-06-04T12:44:09;23.60;46.50
24338;DHT22;12457;50.832;4.346;2023-06-04T12:46:35;23.70;46.50
24338;DHT22;12457;50.832;4.346;2023-06-04T12:49:01;23.50;46.40
24338;DHT22;12457;50.832;4.346;2023-06-04T12:51:26;23.40;46.60
24338;DHT22;12457;50.832;4.346;2023-06-04T12:53:52;23.40;46.50
24338;DHT22;12457;50.832;4.346;2023-06-04T12:56:18;23.30;46.10
24338;DHT22;12457;50.832;4.346;2023-06-04T12:58:47;23.30;46.80
24338;DHT22;12457;50.832;4.346;2023-06-04T13:01:14;23.50;46.50
24338;DHT22;12457;50.832;4.346;2023-06-04T13:03:40;23.50;46.30
24338;DHT22;12457;50.832;4.346;2023-06-04T13:06:06;23.60;46.10
24338;DHT22;12457;50.832;4.346;2023-06-04T13:08:32;23.70;46.10
24338;DHT22;12457;50.832;4.346;2023-06-04T13:10:58;23.70;46.40
24338;DHT22;12457;50.832;4.346;2023-06-04T13:13:24;23.70;45.90
24338;DHT22;12457;50.832;4.346;2023-06-04T13:15:50;23.60;46.30
24338;DHT22;12457;50.832;4.346;2023-06-04T13:18:16;23.80;45.60
24338;DHT22;12457;50.832;4.346;2023-06-04T13:20:42;23.80;45.00
24338;DHT22;12457;50.832;4.346;2023-06-04T13:23:08;23.90;45.10
24338;DHT22;12457;50.832;4.346;2023-06-04T13:25:35;23.90;44.50
24338;DHT22;12457;50.832;4.346;2023-06-04T13:28:05;23.70;44.90
24338;DHT22;12457;50.832;4.346;2023-06-04T13:30:31;23.80;44.90
24338;DHT22;12457;50.832;4.346;2023-06-04T13:32:57;23.90;44.60
24338;DHT22;12457;50.832;4.346;2023-06-04T13:35:25;23.90;44.30
24338;DHT22;12457;50.832;4.346;2023-06-04T13:37:51;23.90;44.70
24338;DHT22;12457;50.832;4.346;2023-06-04T13:40:17;24.10;44.30
24338;DHT22;12457;50.832;4.346;2023-06-04T13:42:46;24.10;43.90
24338;DHT22;12457;50.832;4.346;2023-06-04T13:45:12;24.00;43.30
24338;DHT22;12457;50.832;4.346;2023-06-04T13:47:38;24.00;43.80
24338;DHT22;12457;50.832;4.346;2023-06-04T13:50:04;24.20;43.40
24338;DHT22;12457;50.832;4.346;2023-06-04T13:52:30;24.20;42.80
24338;DHT22;12457;50.832;4.346;2023-06-04T13:55:00;24.20;43.20
24338;DHT22;12457;50.832;4.346;2023-06-04T13:57:31;24.40;43.10
24338;DHT22;12457;50.832;4.346;2023-06-04T13:59:57;24.40;43.20
24338;DHT22;12457;50.832;4.346;2023-06-04T14:02:22;24.40;43.50
24338;DHT22;12457;50.832;4.346;2023-06-04T14:04:50;24.40;43.20
24338;DHT22;12457;50.832;4.346;2023-06-04T14:07:16;24.20;42.80
24338;DHT22;12457;50.832;4.346;2023-06-04T14:09:44;24.10;43.00
24338;DHT22;12457;50.832;4.346;2023-06-04T14:12:11;24.10;42.90
24338;DHT22;12457;50.832;4.346;2023-06-04T14:14:37;24.10;42.70
24338;DHT22;12457;50.832;4.346;2023-06-04T14:17:03;24.20;42.80
24338;DHT22;12457;50.832;4.346;2023-06-04T14:19:29;24.20;42.20
24338;DHT22;12457;50.832;4.346;2023-06-04T14:21:55;24.20;42.40
24338;DHT22;12457;50.832;4.346;2023-06-04T14:24:21;24.30;42.20
24338;DHT22;12457;50.832;4.346;2023-06-04T14:26:47;24.40;42.00
24338;DHT22;12457;50.832;4.346;2023-06-04T14:29:19;24.40;41.80
24338;DHT22;12457;50.832;4.346;2023-06-04T14:31:45;24.30;42.00
24338;DHT22;12457;50.832;4.346;2023-06-04T14:34:11;24.40;42.00
24338;DHT22;12457;50.832;4.346;2023-06-04T14:36:39;24.50;41.40
24338;DHT22;12457;50.832;4.346;2023-06-04T14:39:05;24.30;41.50
24338;DHT22;12457;50.832;4.346;2023-06-04T14:41:31;24.20;40.80
24338;DHT22;12457;50.832;4.346;2023-06-04T14:43:57;24.20;40.90
24338;DHT22;12457;50.832;4.346;2023-06-04T14:46:23;24.20;40.80
24338;DHT22;12457;50.832;4.346;2023-06-04T14:48:49;24.10;40.70
24338;DHT22;12457;50.832;4.346;2023-06-04T14:51:15;24.30;41.00
24338;DHT22;12457;50.832;4.346;2023-06-04T14:53:41;24.50;40.30
24338;DHT22;12457;50.832;4.346;2023-06-04T14:56:06;24.60;40.20
24338;DHT22;12457;50.832;4.346;2023-06-04T14:58:32;24.60;40.10
24338;DHT22;12457;50.832;4.346;2023-06-04T15:01:01;24.50;40.00
24338;DHT22;12457;50.832;4.346;2023-06-04T15:03:29;24.40;39.80
24338;DHT22;12457;50.832;4.346;2023-06-04T15:05:55;24.40;39.90
24338;DHT22;12457;50.832;4.346;2023-06-04T15:08:22;24.20;40.20
24338;DHT22;12457;50.832;4.346;2023-06-04T15:10:47;24.20;40.40
24338;DHT22;12457;50.832;4.346;2023-06-04T15:13:13;24.20;40.00
24338;DHT22;12457;50.832;4.346;2023-06-04T15:15:39;24.20;40.20
24338;DHT22;12457;50.832;4.346;2023-06-04T15:18:05;24.40;40.10
24338;DHT22;12457;50.832;4.346;2023-06-04T15:20:33;24.40;40.10
24338;DHT22;12457;50.832;4.346;2023-06-04T15:22:59;24.30;40.10
24338;DHT22;12457;50.832;4.346;2023-06-04T15:25:26;24.30;40.10
24338;DHT22;12457;50.832;4.346;2023-06-04T15:27:52;24.40;40.00
24338;DHT22;12457;50.832;4.346;2023-06-04T15:30:18;24.50;39.40
24338;DHT22;12457;50.832;4.346;2023-06-04T15:32:44;24.30;39.20
24338;DHT22;12457;50.832;4.346;2023-06-04T15:35:10;24.30;38.90
24338;DHT22;12457;50.832;4.346;2023-06-04T15:37:36;24.40;38.80
24338;DHT22;12457;50.832;4.346;2023-06-04T15:40:03;24.20;38.60
24338;DHT22;12457;50.832;4.346;2023-06-04T15:42:32;24.30;38.60
24338;DHT22;12457;50.832;4.346;2023-06-04T15:44:57;24.30;39.10